createdAt,value
2018-07-24T00:02:08.873Z,14.37
2018-07-24T00:04:36.101Z,11.80
2018-07-24T00:07:03.216Z,12.50
2018-07-24T00:09:30.324Z,12.30
2018-07-24T00:11:57.524Z,13.60
2018-07-24T00:14:24.653Z,14.17
2018-07-24T00:16:51.753Z,12.80
2018-07-24T00:19:18.867Z,13.03
2018-07-24T00:21:45.977Z,12.40
2018-07-24T00:24:13.087Z,12.80
2018-07-24T00:26:40.220Z,11.63
2018-07-24T00:29:07.383Z,11.57
2018-07-24T00:31:35.021Z,10.97
2018-07-24T00:34:02.193Z,11.40
2018-07-24T00:36:29.309Z,10.80
2018-07-24T00:38:56.491Z,11.67
2018-07-24T00:41:23.632Z,13.03
2018-07-24T00:43:50.770Z,11.13
2018-07-24T00:46:18.033Z,10.67
2018-07-24T00:48:45.124Z,11.47
2018-07-24T00:51:12.285Z,11.60
2018-07-24T00:53:39.437Z,15.30
2018-07-24T00:56:06.775Z,11.73
2018-07-24T00:58:33.996Z,12.37
2018-07-24T01:01:01.218Z,12.33
2018-07-24T01:03:28.372Z,11.80
2018-07-24T01:05:55.543Z,11.03
2018-07-24T01:08:22.731Z,12.80
2018-07-24T01:10:50.492Z,11.37
2018-07-24T01:13:17.725Z,11.20
2018-07-24T01:15:44.804Z,11.03
2018-07-24T01:18:11.940Z,12.33
2018-07-24T01:20:39.252Z,10.87
2018-07-24T01:23:06.496Z,11.70
2018-07-24T01:25:33.744Z,11.93
2018-07-24T01:28:00.900Z,11.53
2018-07-24T01:30:28.735Z,11.37
2018-07-24T01:32:55.932Z,11.07
2018-07-24T01:35:23.304Z,10.60
2018-07-24T01:37:50.402Z,12.23
2018-07-24T01:40:17.584Z,14.43
2018-07-24T01:42:44.728Z,11.83
2018-07-24T01:45:11.875Z,10.57
2018-07-24T01:47:39.081Z,12.43
2018-07-24T01:50:06.692Z,12.63
2018-07-24T01:52:33.844Z,11.90
2018-07-24T01:55:01.057Z,12.70
2018-07-24T01:57:28.372Z,13.60
2018-07-24T01:59:55.507Z,14.00
2018-07-24T02:02:22.716Z,13.53
2018-07-24T02:04:50.115Z,13.13
2018-07-24T02:07:17.319Z,12.90
2018-07-24T02:09:44.761Z,11.80
2018-07-24T02:12:12.017Z,11.90
2018-07-24T02:14:39.224Z,14.53
2018-07-24T02:17:06.437Z,12.87
2018-07-24T02:19:33.581Z,12.20
2018-07-24T02:22:00.701Z,12.93
2018-07-24T02:24:28.738Z,13.00
2018-07-24T02:26:55.911Z,13.00
2018-07-24T02:29:23.067Z,12.90
2018-07-24T02:31:50.230Z,12.40
2018-07-24T02:34:17.349Z,13.77
2018-07-24T02:36:44.704Z,12.57
2018-07-24T02:39:13.359Z,12.33
2018-07-24T02:41:40.612Z,13.17
2018-07-24T02:44:07.749Z,12.73
2018-07-24T02:46:34.867Z,12.60
2018-07-24T02:49:02.175Z,13.20
2018-07-24T02:51:29.464Z,13.27
2018-07-24T02:53:56.621Z,12.07
2018-07-24T02:56:23.783Z,13.43
2018-07-24T02:58:50.930Z,12.73
2018-07-24T03:01:18.421Z,11.87
2018-07-24T03:03:45.632Z,12.07
2018-07-24T03:06:12.869Z,13.50
2018-07-24T03:08:40.064Z,13.60
2018-07-24T03:11:07.257Z,11.90
2018-07-24T03:13:34.421Z,11.57
2018-07-24T03:16:01.577Z,12.17
2018-07-24T03:18:28.766Z,11.00
2018-07-24T03:20:55.873Z,12.20
2018-07-24T03:23:22.968Z,12.23
2018-07-24T03:25:50.300Z,12.10
2018-07-24T03:28:17.794Z,12.17
2018-07-24T03:30:44.936Z,13.10
2018-07-24T03:49:49.173Z,12.50
2018-07-24T03:52:16.331Z,13.07
2018-07-24T03:54:43.742Z,12.60
2018-07-24T03:57:11.054Z,14.20
2018-07-24T03:59:38.249Z,13.83
2018-07-24T04:02:05.402Z,12.33
2018-07-24T04:04:32.508Z,13.63
2018-07-24T04:06:59.628Z,11.50
2018-07-24T04:09:26.752Z,12.47
2018-07-24T04:11:53.934Z,11.90
2018-07-24T04:14:21.383Z,12.30
2018-07-24T04:16:48.506Z,12.63
2018-07-24T04:19:15.678Z,14.40
2018-07-24T04:21:42.832Z,13.27
2018-07-24T04:24:10.102Z,20.40
2018-07-24T04:26:37.232Z,37.97
2018-07-24T04:29:04.898Z,47.50
2018-07-24T04:31:32.169Z,31.67
2018-07-24T04:33:59.368Z,16.80
2018-07-24T04:36:26.553Z,13.93
2018-07-24T04:38:53.805Z,13.80
2018-07-24T04:41:20.968Z,12.63
2018-07-24T04:43:48.084Z,13.20
2018-07-24T04:46:15.336Z,11.53
2018-07-24T04:48:42.530Z,12.40
2018-07-24T04:51:09.655Z,13.27
2018-07-24T04:53:37.944Z,12.93
2018-07-24T04:56:05.093Z,11.70
2018-07-24T04:58:32.267Z,11.90
2018-07-24T05:00:59.503Z,11.90
2018-07-24T05:03:26.720Z,10.57
2018-07-24T05:05:54.824Z,11.10
2018-07-24T05:08:21.980Z,12.20
2018-07-24T05:10:49.232Z,10.60
2018-07-24T05:13:17.268Z,14.03
2018-07-24T05:15:44.656Z,10.83
2018-07-24T05:18:11.825Z,11.30
2018-07-24T05:20:39.033Z,11.33
2018-07-24T05:23:06.290Z,11.07
2018-07-24T05:25:33.541Z,10.90
2018-07-24T05:28:00.808Z,9.90
2018-07-24T05:30:28.060Z,11.97
2018-07-24T05:32:55.826Z,13.23
2018-07-24T05:35:23.044Z,13.87
2018-07-24T05:37:50.218Z,10.77
2018-07-24T05:40:17.408Z,13.27
2018-07-24T05:42:44.619Z,10.93
2018-07-24T05:45:11.828Z,13.50
2018-07-24T05:47:39.270Z,12.53
2018-07-24T05:50:06.781Z,12.37
2018-07-24T05:52:34.789Z,13.73
2018-07-24T05:55:02.277Z,10.70
2018-07-24T05:57:30.088Z,11.40
2018-07-24T05:59:57.267Z,11.47
2018-07-24T06:02:24.508Z,16.77
2018-07-24T06:04:51.698Z,13.20
2018-07-24T06:07:18.919Z,12.17
2018-07-24T06:09:46.137Z,10.77
2018-07-24T06:12:13.328Z,10.33
2018-07-24T06:14:40.916Z,9.70
2018-07-24T06:17:08.307Z,10.97
2018-07-24T06:19:35.365Z,11.93
2018-07-24T06:22:02.597Z,11.60
2018-07-24T06:24:30.665Z,10.73
2018-07-24T06:26:58.604Z,11.97
2018-07-24T06:29:27.051Z,10.23
2018-07-24T06:31:54.360Z,10.70
2018-07-24T06:34:21.633Z,13.33
2018-07-24T06:36:48.813Z,9.10
2018-07-24T06:39:15.967Z,9.30
2018-07-24T06:41:43.259Z,9.93
2018-07-24T06:44:11.834Z,11.40
2018-07-24T06:46:39.642Z,9.50
2018-07-24T06:49:07.287Z,10.60
2018-07-24T06:51:35.915Z,14.53
2018-07-24T06:54:03.182Z,8.70
2018-07-24T06:56:30.732Z,9.73
2018-07-24T06:58:58.056Z,9.53
2018-07-24T07:01:25.345Z,9.03
2018-07-24T07:03:52.576Z,8.00
2018-07-24T07:06:19.792Z,9.10
2018-07-24T07:08:46.957Z,9.33
2018-07-24T07:11:14.137Z,8.50
2018-07-24T07:13:41.901Z,10.73
2018-07-24T07:16:09.275Z,19.83
2018-07-24T07:18:36.563Z,22.17
2018-07-24T07:21:03.701Z,9.67
2018-07-24T07:23:31.099Z,11.63
2018-07-24T07:25:58.381Z,14.63
2018-07-24T07:28:25.744Z,12.57
2018-07-24T07:30:53.042Z,10.40
2018-07-24T07:33:20.273Z,10.63
2018-07-24T07:35:47.456Z,10.47
2018-07-24T07:38:14.626Z,9.43
2018-07-24T07:40:41.777Z,15.97
2018-07-24T07:43:09.418Z,10.20
2018-07-24T07:45:37.242Z,9.80
2018-07-24T07:48:04.554Z,10.70
2018-07-24T07:50:31.691Z,9.13
2018-07-24T07:52:58.982Z,14.87
2018-07-24T07:55:26.137Z,10.90
2018-07-24T07:57:53.260Z,15.50
2018-07-24T08:00:20.384Z,9.33
2018-07-24T08:02:47.560Z,8.53
2018-07-24T08:05:14.816Z,9.63
2018-07-24T08:07:42.038Z,9.83
2018-07-24T08:10:09.283Z,10.57
2018-07-24T08:12:36.544Z,10.03
2018-07-24T08:15:04.072Z,10.00
2018-07-24T08:17:31.301Z,14.80
2018-07-24T08:19:58.506Z,9.10
2018-07-24T08:22:25.833Z,13.30
2018-07-24T08:24:53.009Z,10.63
2018-07-24T08:27:20.233Z,9.50
2018-07-24T08:29:48.037Z,10.93
2018-07-24T08:32:15.399Z,9.57
2018-07-24T08:34:42.824Z,12.00
2018-07-24T08:37:10.036Z,8.87
2018-07-24T08:39:37.176Z,9.93
2018-07-24T08:42:04.360Z,12.50
2018-07-24T08:44:31.562Z,9.47
2018-07-24T08:46:58.681Z,10.37
2018-07-24T08:49:25.924Z,9.67
2018-07-24T08:51:53.072Z,9.40
2018-07-24T08:54:20.452Z,26.03
2018-07-24T08:56:47.711Z,11.00
2018-07-24T08:59:14.968Z,9.70
2018-07-24T09:01:42.229Z,19.90
2018-07-24T09:04:09.579Z,14.30
2018-07-24T09:06:36.846Z,10.27
2018-07-24T09:09:06.245Z,10.93
2018-07-24T09:11:33.496Z,9.97
2018-07-24T09:14:00.853Z,10.00
2018-07-24T09:16:27.997Z,12.80
2018-07-24T09:18:55.126Z,10.43
2018-07-24T09:21:22.362Z,10.07
2018-07-24T09:23:49.742Z,11.00
2018-07-24T09:26:17.012Z,10.50
2018-07-24T09:28:44.285Z,11.40
2018-07-24T09:31:12.199Z,11.60
2018-07-24T09:33:39.370Z,11.43
2018-07-24T09:36:06.622Z,13.13
2018-07-24T09:38:33.812Z,9.73
2018-07-24T09:41:01.018Z,10.97
2018-07-24T09:43:28.208Z,14.47
2018-07-24T09:45:55.459Z,11.10
2018-07-24T09:48:22.626Z,11.43
2018-07-24T09:50:50.002Z,9.70
2018-07-24T09:53:18.880Z,9.70
2018-07-24T09:55:46.068Z,8.90
2018-07-24T09:58:14.218Z,9.90
2018-07-24T10:00:47.149Z,9.07
2018-07-24T10:03:14.324Z,8.20
2018-07-24T10:05:41.530Z,8.97
2018-07-24T10:08:08.760Z,9.17
2018-07-24T10:10:35.959Z,9.43
2018-07-24T10:13:03.416Z,9.03
2018-07-24T10:15:30.488Z,8.90
2018-07-24T10:17:57.606Z,8.33
2018-07-24T10:20:24.880Z,9.00
2018-07-24T10:22:53.364Z,10.33
2018-07-24T10:25:20.693Z,8.00
2018-07-24T10:27:48.442Z,8.30
2018-07-24T10:30:15.759Z,7.90
2018-07-24T10:32:42.946Z,9.20
2018-07-24T10:35:11.178Z,8.17
2018-07-24T10:37:38.429Z,8.10
2018-07-24T10:40:05.718Z,7.60
2018-07-24T10:42:32.951Z,9.57
2018-07-24T10:45:00.074Z,9.30
2018-07-24T10:47:27.221Z,7.90
2018-07-24T10:49:55.242Z,8.20
2018-07-24T10:52:22.601Z,8.93
2018-07-24T10:54:49.855Z,9.53
2018-07-24T10:57:17.976Z,9.80
2018-07-24T10:59:45.244Z,8.80
2018-07-24T11:02:12.503Z,9.40
2018-07-24T11:04:39.755Z,8.67
2018-07-24T11:07:07.670Z,8.80
2018-07-24T11:09:34.924Z,8.77
2018-07-24T11:12:02.179Z,8.80
2018-07-24T11:14:30.054Z,9.37
2018-07-24T11:16:58.024Z,9.20
2018-07-24T11:19:25.277Z,8.63
2018-07-24T11:21:52.558Z,8.53
2018-07-24T11:24:20.004Z,9.30
2018-07-24T11:26:48.296Z,9.13
2018-07-24T11:29:15.593Z,7.97
2018-07-24T11:31:42.909Z,8.73
2018-07-24T11:34:10.628Z,9.37
2018-07-24T11:36:38.103Z,8.77
2018-07-24T11:39:06.768Z,8.80
2018-07-24T11:41:33.938Z,8.50
2018-07-24T11:44:02.235Z,9.10
2018-07-24T11:46:29.393Z,9.30
2018-07-24T11:48:56.714Z,8.53
2018-07-24T11:51:24.456Z,8.57
2018-07-24T11:53:52.909Z,7.80
2018-07-24T11:56:20.319Z,9.27
2018-07-24T11:58:47.600Z,9.33
2018-07-24T12:01:14.700Z,9.10
2018-07-24T12:03:41.940Z,8.97
2018-07-24T12:06:10.172Z,9.10
2018-07-24T12:08:37.375Z,8.70
2018-07-24T12:11:04.812Z,9.13
2018-07-24T12:13:32.025Z,8.03
2018-07-24T12:15:59.286Z,8.90
2018-07-24T12:18:27.281Z,8.90
2018-07-24T12:20:54.452Z,8.97
2018-07-24T12:23:21.789Z,8.53
2018-07-24T12:25:48.942Z,8.70
2018-07-24T12:28:16.087Z,8.57
2018-07-24T12:30:43.324Z,9.57
2018-07-24T12:33:10.515Z,9.10
2018-07-24T12:35:37.768Z,8.53
2018-07-24T12:38:05.125Z,8.77
2018-07-24T12:40:32.587Z,9.07
2018-07-24T12:43:00.047Z,20.57
2018-07-24T12:45:27.599Z,9.17
2018-07-24T12:47:56.856Z,9.27
2018-07-24T12:50:24.461Z,8.30
2018-07-24T12:52:51.671Z,9.30
2018-07-24T12:55:18.816Z,8.90
2018-07-24T12:57:46.295Z,8.73
2018-07-24T13:00:13.448Z,8.90
2018-07-24T13:02:40.713Z,8.13
2018-07-24T13:05:07.924Z,9.20
2018-07-24T13:07:35.071Z,9.23
2018-07-24T13:10:02.321Z,9.20
2018-07-24T13:12:29.622Z,11.50
2018-07-24T13:14:58.132Z,8.73
2018-07-24T13:17:25.375Z,11.33
2018-07-24T13:19:52.586Z,12.93
2018-07-24T13:22:19.862Z,9.10
2018-07-24T13:24:47.188Z,9.10
2018-07-24T13:27:14.326Z,8.90
2018-07-24T13:29:41.543Z,9.20
2018-07-24T13:32:08.868Z,8.30
2018-07-24T13:34:36.216Z,9.23
2018-07-24T13:37:03.430Z,9.80
2018-07-24T13:39:31.644Z,9.87
2018-07-24T13:41:59.966Z,10.70
2018-07-24T13:44:27.156Z,8.43
2018-07-24T13:46:54.640Z,8.47
2018-07-24T13:49:21.864Z,8.97
2018-07-24T13:51:49.073Z,9.67
2018-07-24T13:54:16.237Z,11.17
2018-07-24T13:56:43.424Z,9.37
2018-07-24T13:59:10.674Z,9.27
2018-07-24T14:01:37.867Z,9.50
2018-07-24T14:04:05.161Z,9.73
2018-07-24T14:06:32.368Z,9.30
2018-07-24T14:08:59.581Z,9.80
2018-07-24T14:11:26.745Z,9.33
2018-07-24T14:13:53.995Z,8.40
2018-07-24T14:16:21.791Z,8.70
2018-07-24T14:18:49.089Z,9.40
2018-07-24T14:21:16.573Z,9.20
2018-07-24T14:23:43.799Z,9.20
2018-07-24T14:26:10.961Z,9.53
2018-07-24T14:28:38.265Z,10.33
2018-07-24T14:31:05.453Z,9.50
2018-07-24T14:33:32.599Z,9.33
2018-07-24T14:35:59.757Z,9.73
2018-07-24T14:38:27.187Z,9.23
2018-07-24T14:40:55.244Z,9.27
2018-07-24T14:43:22.575Z,9.83
2018-07-24T14:45:49.786Z,13.10
2018-07-24T14:48:16.954Z,9.50
2018-07-24T14:50:44.108Z,9.37
2018-07-24T14:53:11.401Z,9.40
2018-07-24T14:55:38.652Z,10.20
2018-07-24T14:58:05.904Z,9.30
2018-07-24T15:00:33.211Z,8.93
2018-07-24T15:03:02.004Z,9.33
2018-07-24T15:05:29.780Z,9.30
2018-07-24T15:07:57.214Z,8.77
2018-07-24T15:10:24.700Z,9.23
2018-07-24T15:12:52.083Z,7.97
2018-07-24T15:15:19.434Z,8.33
2018-07-24T15:17:46.614Z,9.40
2018-07-24T15:20:15.369Z,9.27
2018-07-24T15:22:42.688Z,9.13
2018-07-24T15:25:10.950Z,9.20
2018-07-24T15:27:38.153Z,9.90
2018-07-24T15:30:06.839Z,10.20
2018-07-24T15:32:35.138Z,9.87
2018-07-24T15:35:03.196Z,9.30
2018-07-24T15:37:30.369Z,9.80
2018-07-24T15:39:57.689Z,8.90
2018-07-24T15:42:24.849Z,8.80
2018-07-24T15:44:52.384Z,9.73
2018-07-24T15:47:19.659Z,10.90
2018-07-24T15:49:49.060Z,10.20
2018-07-24T15:52:16.312Z,8.67
2018-07-24T15:54:44.512Z,9.97
2018-07-24T15:57:11.746Z,8.33
2018-07-24T15:59:38.949Z,9.30
2018-07-24T16:02:06.545Z,9.43
2018-07-24T16:04:33.727Z,8.87
2018-07-24T16:07:01.060Z,20.13
2018-07-24T16:09:28.311Z,10.03
2018-07-24T16:11:55.523Z,10.50
2018-07-24T16:14:22.713Z,8.43
2018-07-24T16:16:49.960Z,8.77
2018-07-24T16:19:17.893Z,9.20
2018-07-24T16:21:45.179Z,12.53
2018-07-24T16:24:12.396Z,9.10
2018-07-24T16:26:39.787Z,8.97
2018-07-24T16:29:07.218Z,9.30
2018-07-24T16:31:34.580Z,10.43
2018-07-24T16:34:02.338Z,9.27
2018-07-24T16:36:29.688Z,10.10
2018-07-24T16:39:00.038Z,16.47
2018-07-24T16:41:27.326Z,10.30
2018-07-24T16:43:54.536Z,12.47
2018-07-24T16:46:21.696Z,12.23
2018-07-24T16:48:49.546Z,11.37
2018-07-24T16:51:17.056Z,10.23
2018-07-24T16:53:45.568Z,9.30
2018-07-24T16:56:12.791Z,11.67
2018-07-24T16:58:40.017Z,8.33
2018-07-24T17:01:07.317Z,8.80
2018-07-24T17:03:34.682Z,14.37
2018-07-24T17:06:01.946Z,13.17
2018-07-24T17:08:29.550Z,20.20
2018-07-24T17:10:56.840Z,11.77
2018-07-24T17:13:24.255Z,11.10
2018-07-24T17:15:51.730Z,10.60
2018-07-24T17:18:18.959Z,9.97
2018-07-24T17:20:46.106Z,13.40
2018-07-24T17:23:13.288Z,10.67
2018-07-24T17:25:40.530Z,11.80
2018-07-24T17:28:08.394Z,19.60
2018-07-24T17:30:35.597Z,13.50
2018-07-24T17:33:02.795Z,11.10
2018-07-24T17:35:30.054Z,14.37
2018-07-24T17:37:57.805Z,16.57
2018-07-24T17:40:26.020Z,10.03
2018-07-24T17:42:54.023Z,11.43
2018-07-24T17:45:21.196Z,61.13
2018-07-24T17:47:48.528Z,32.77
2018-07-24T17:50:15.693Z,16.10
2018-07-24T17:52:42.925Z,13.63
2018-07-24T17:55:10.761Z,16.53
2018-07-24T17:57:38.044Z,12.60
2018-07-24T18:00:05.402Z,10.80
2018-07-24T18:02:32.784Z,9.53
2018-07-24T18:05:00.001Z,10.07
2018-07-24T18:07:27.249Z,10.23
2018-07-24T18:09:54.462Z,9.27
2018-07-24T18:12:21.757Z,11.03
2018-07-24T18:14:48.959Z,11.20
2018-07-24T18:17:16.136Z,10.70
2018-07-24T18:19:43.328Z,11.23
2018-07-24T18:22:10.926Z,9.30
2018-07-24T18:24:38.146Z,8.30
2018-07-24T18:27:06.073Z,10.13
2018-07-24T18:29:33.266Z,10.43
2018-07-24T18:32:00.417Z,16.73
2018-07-24T18:34:27.669Z,18.93
2018-07-24T18:36:54.900Z,13.53
2018-07-24T18:39:22.769Z,11.87
2018-07-24T18:41:50.009Z,10.63
2018-07-24T18:44:17.879Z,10.40
2018-07-24T18:46:45.226Z,10.50
2018-07-24T18:49:13.443Z,11.47
2018-07-24T18:51:40.811Z,11.63
2018-07-24T18:54:08.696Z,11.37
2018-07-24T18:56:36.123Z,10.40
2018-07-24T18:59:03.631Z,11.30
2018-07-24T19:01:30.932Z,13.40
2018-07-24T19:03:58.853Z,11.63
2018-07-24T19:06:26.024Z,11.97
2018-07-24T19:08:53.502Z,12.20
2018-07-24T19:11:20.862Z,11.33
2018-07-24T19:13:48.085Z,11.60
2018-07-24T19:16:16.109Z,12.63
2018-07-24T19:18:43.943Z,12.73
2018-07-24T19:21:11.579Z,12.80
2018-07-24T19:23:40.300Z,12.63
2018-07-24T19:26:07.613Z,12.93
2018-07-24T19:28:35.539Z,11.70
2018-07-24T19:31:03.095Z,16.47
2018-07-24T19:33:30.293Z,12.77
2018-07-24T19:35:57.612Z,12.50
2018-07-24T19:38:25.019Z,17.10
2018-07-24T19:40:52.787Z,14.30
2018-07-24T19:43:20.044Z,13.70
2018-07-24T19:45:47.221Z,14.97
2018-07-24T19:48:15.684Z,25.47
2018-07-24T19:50:42.896Z,18.30
2018-07-24T19:53:11.149Z,15.17
2018-07-24T19:55:38.512Z,22.30
2018-07-24T19:58:06.732Z,17.87
2018-07-24T20:00:35.116Z,20.70
2018-07-24T20:03:03.886Z,18.77
2018-07-24T20:05:31.108Z,15.40
2018-07-24T20:07:58.976Z,19.67
2018-07-24T20:10:26.295Z,19.57
2018-07-24T20:12:53.963Z,20.40
2018-07-24T20:15:21.207Z,18.60
2018-07-24T20:17:48.542Z,21.53
2018-07-24T20:20:16.604Z,19.27
2018-07-24T20:22:44.728Z,21.57
2018-07-24T20:25:12.238Z,21.80
2018-07-24T20:27:39.637Z,17.70
2018-07-24T20:30:07.244Z,17.07
2018-07-24T20:32:34.840Z,14.80
2018-07-24T20:35:03.604Z,15.60
2018-07-24T20:37:31.820Z,14.43
2018-07-24T20:40:00.891Z,14.17
2018-07-24T20:59:11.911Z,16.17
2018-07-24T21:01:39.441Z,15.43
2018-07-24T21:04:07.459Z,17.33
2018-07-24T21:06:35.458Z,16.63
2018-07-24T21:09:04.779Z,16.70
2018-07-24T21:11:32.881Z,16.63
2018-07-24T21:14:01.144Z,16.53
2018-07-24T21:16:28.473Z,19.37
2018-07-24T21:18:55.718Z,18.40
2018-07-24T21:21:22.947Z,19.57
2018-07-24T21:23:50.219Z,16.83
2018-07-24T21:26:17.623Z,16.17
2018-07-24T21:28:45.693Z,15.80
2018-07-24T21:31:13.326Z,15.57
2018-07-24T21:33:40.532Z,15.87
2018-07-24T21:36:07.861Z,15.57
2018-07-24T21:38:35.116Z,16.23
2018-07-24T21:41:02.523Z,16.20
2018-07-24T21:43:30.051Z,16.23
2018-07-24T21:45:57.539Z,16.10
2018-07-24T21:48:24.705Z,16.83
2018-07-24T21:50:51.867Z,16.87
2018-07-24T21:53:19.006Z,15.70
2018-07-24T21:55:46.380Z,14.80
2018-07-24T21:58:14.379Z,16.50
2018-07-24T22:00:41.642Z,15.80
2018-07-24T22:03:09.001Z,15.70
2018-07-24T22:05:36.190Z,16.60
2018-07-24T22:08:03.374Z,17.27
2018-07-24T22:10:30.613Z,19.00
2018-07-24T22:12:57.879Z,17.60
2018-07-24T22:15:25.905Z,16.70
2018-07-24T22:17:53.212Z,16.33
2018-07-24T22:20:20.811Z,16.87
2018-07-24T22:22:49.396Z,18.60
2018-07-24T22:25:16.932Z,18.83
2018-07-24T22:27:44.186Z,17.07
2018-07-24T22:30:11.846Z,16.53
2018-07-24T22:32:39.537Z,16.57
2018-07-24T22:35:07.572Z,17.10
2018-07-24T22:37:35.197Z,17.70
2018-07-24T22:40:02.443Z,16.13
2018-07-24T22:42:29.619Z,16.33
2018-07-24T22:44:56.843Z,16.30
2018-07-24T22:47:24.032Z,15.70
2018-07-24T22:49:51.233Z,17.90
2018-07-24T22:52:18.424Z,15.90
2018-07-24T22:54:45.596Z,17.27
2018-07-24T22:57:12.872Z,15.30
2018-07-24T22:59:40.215Z,15.47
2018-07-24T23:02:07.487Z,15.50
2018-07-24T23:04:34.740Z,16.00
2018-07-24T23:07:01.964Z,16.60
2018-07-24T23:09:29.141Z,15.97
2018-07-24T23:11:56.372Z,16.90
2018-07-24T23:14:23.628Z,16.77
2018-07-24T23:16:51.715Z,15.57
2018-07-24T23:19:18.826Z,14.37
2018-07-24T23:21:46.076Z,15.10
2018-07-24T23:24:13.250Z,14.40
2018-07-24T23:26:40.426Z,15.17
2018-07-24T23:29:07.557Z,15.17
2018-07-24T23:31:34.773Z,15.13
2018-07-24T23:34:01.950Z,14.80
2018-07-24T23:36:29.279Z,14.57
2018-07-24T23:38:56.466Z,14.33
2018-07-24T23:41:23.792Z,14.20
2018-07-24T23:43:51.084Z,14.23
2018-07-24T23:46:18.425Z,15.47
2018-07-24T23:48:45.575Z,14.17
2018-07-24T23:51:12.932Z,13.83
2018-07-24T23:53:40.180Z,13.27
2018-07-24T23:56:07.374Z,14.70
2018-07-24T23:58:34.528Z,14.13
